createdAt,value
2022-08-30T00:01:28.739Z,99286.84
2022-08-30T00:04:01.228Z,99291.70
2022-08-30T00:06:33.241Z,99289.75
2022-08-30T00:09:04.752Z,99292.02
2022-08-30T00:11:35.385Z,99289.80
2022-08-30T00:14:05.166Z,99292.16
2022-08-30T00:16:36.759Z,99290.90
2022-08-30T00:19:07.903Z,99290.38
2022-08-30T00:21:36.205Z,99293.67
2022-08-30T00:24:05.274Z,99292.89
2022-08-30T00:26:38.844Z,99294.02
2022-08-30T00:29:06.865Z,99294.81
2022-08-30T00:31:34.884Z,99292.34
2022-08-30T00:34:06.339Z,99295.23
2022-08-30T00:36:41.223Z,99294.51
2022-08-30T00:39:09.124Z,99293.31
2022-08-30T00:41:42.454Z,99292.88
2022-08-30T00:44:13.985Z,99292.38
2022-08-30T00:46:42.562Z,99293.80
2022-08-30T00:49:16.294Z,99293.11
2022-08-30T00:51:48.225Z,99294.59
2022-08-30T00:54:20.166Z,99293.14
2022-08-30T00:56:52.955Z,99300.37
2022-08-30T00:59:25.935Z,99296.17
2022-08-30T01:01:57.830Z,99300.39
2022-08-30T01:04:31.523Z,99303.09
2022-08-30T01:07:03.632Z,99305.61
2022-08-30T01:09:35.371Z,99306.54
2022-08-30T01:12:06.717Z,99302.78
2022-08-30T01:14:38.439Z,99303.33
2022-08-30T01:17:10.364Z,99302.70
2022-08-30T01:19:51.615Z,99306.26
2022-08-30T01:22:36.890Z,99304.23
2022-08-30T01:25:09.276Z,99300.49
2022-08-30T01:28:05.368Z,99304.75
2022-08-30T01:30:39.262Z,99309.65
2022-08-30T01:33:11.788Z,99303.77
2022-08-30T01:35:49.752Z,99304.31
2022-08-30T01:38:23.741Z,99299.06
2022-08-30T01:41:00.564Z,99294.98
2022-08-30T01:43:29.213Z,99294.21
2022-08-30T01:45:57.685Z,99294.27
2022-08-30T01:48:32.835Z,99296.33
2022-08-30T01:51:09.959Z,99294.46
2022-08-30T01:53:43.006Z,99294.67
2022-08-30T01:56:15.708Z,99292.81
2022-08-30T01:58:47.399Z,99291.68
2022-08-30T02:01:22.439Z,99290.61
2022-08-30T02:03:52.025Z,99285.95
2022-08-30T02:06:25.082Z,99285.84
2022-08-30T02:08:53.065Z,99286.56
2022-08-30T02:11:24.028Z,99282.32
2022-08-30T02:13:51.868Z,99282.46
2022-08-30T02:16:25.808Z,99283.62
2022-08-30T02:18:58.150Z,99283.95
2022-08-30T02:21:29.807Z,99284.09
2022-08-30T02:24:01.799Z,99282.94
2022-08-30T02:26:29.543Z,99279.67
2022-08-30T02:29:00.366Z,99283.96
2022-08-30T02:31:29.302Z,99285.38
2022-08-30T02:33:57.119Z,99282.39
2022-08-30T02:36:25.852Z,99282.27
2022-08-30T02:38:57.305Z,99283.26
2022-08-30T02:41:25.412Z,99284.81
2022-08-30T02:43:58.565Z,99281.11
2022-08-30T02:46:33.435Z,99285.52
2022-08-30T02:49:32.491Z,99282.13
2022-08-30T02:52:06.900Z,99276.34
2022-08-30T02:54:37.224Z,99277.30
2022-08-30T02:57:20.315Z,99277.65
2022-08-30T02:59:57.398Z,99277.84
2022-08-30T03:02:30.409Z,99279.58
2022-08-30T03:05:02.516Z,99278.80
2022-08-30T03:07:35.361Z,99279.13
2022-08-30T03:10:07.224Z,99280.23
2022-08-30T03:12:34.995Z,99282.25
2022-08-30T03:15:07.059Z,99285.52
2022-08-30T03:17:37.549Z,99285.09
2022-08-30T03:20:09.790Z,99286.66
2022-08-30T03:22:41.748Z,99285.53
2022-08-30T03:25:23.257Z,99289.59
2022-08-30T03:27:55.110Z,99290.74
2022-08-30T03:30:22.911Z,99295.15
2022-08-30T03:32:54.748Z,99295.69
2022-08-30T03:35:24.765Z,99291.93
2022-08-30T03:37:56.254Z,99291.61
2022-08-30T03:40:29.365Z,99298.51
2022-08-30T03:42:59.827Z,99295.95
2022-08-30T03:45:33.255Z,99292.47
2022-08-30T03:48:05.808Z,99297.48
2022-08-30T03:50:39.093Z,99297.70
2022-08-30T03:53:06.988Z,99294.90
2022-08-30T03:55:34.956Z,99300.96
2022-08-30T03:58:02.841Z,99300.10
2022-08-30T04:00:32.910Z,99305.27
2022-08-30T04:03:00.875Z,99305.70
2022-08-30T04:05:29.103Z,99306.20
2022-08-30T04:07:59.697Z,99309.77
2022-08-30T04:10:27.591Z,99310.75
2022-08-30T04:13:02.183Z,99307.20
2022-08-30T04:15:30.125Z,99305.02
2022-08-30T04:17:58.818Z,99305.40
2022-08-30T04:20:30.323Z,99311.38
2022-08-30T04:23:03.044Z,99310.70
2022-08-30T04:25:30.773Z,99310.46
2022-08-30T04:27:58.532Z,99310.80
2022-08-30T04:30:26.273Z,99313.11
2022-08-30T04:32:58.883Z,99314.55
2022-08-30T04:35:31.074Z,99316.23
2022-08-30T04:38:02.951Z,99318.21
2022-08-30T04:40:30.889Z,99317.90
2022-08-30T04:43:06.591Z,99319.71
2022-08-30T04:45:34.590Z,99325.30
2022-08-30T04:48:02.839Z,99327.45
2022-08-30T04:50:33.139Z,99323.66
2022-08-30T04:53:00.917Z,99327.48
2022-08-30T04:55:28.693Z,99328.17
2022-08-30T04:57:57.176Z,99333.35
2022-08-30T05:00:25.153Z,99331.33
2022-08-30T05:02:52.879Z,99327.80
2022-08-30T05:05:39.686Z,99329.23
2022-08-30T05:08:13.620Z,99333.92
2022-08-30T05:10:47.819Z,99337.39
2022-08-30T05:13:21.034Z,99334.52
2022-08-30T05:15:57.986Z,99335.95
2022-08-30T05:18:28.623Z,99338.34
2022-08-30T05:21:16.469Z,99338.98
2022-08-30T05:23:46.539Z,99339.89
2022-08-30T05:26:25.247Z,99338.59
2022-08-30T05:28:56.338Z,99343.47
2022-08-30T05:31:30.568Z,99343.92
2022-08-30T05:34:02.648Z,99343.99
2022-08-30T05:36:35.205Z,99343.18
2022-08-30T05:39:07.784Z,99346.08
2022-08-30T05:41:39.551Z,99346.90
2022-08-30T05:44:12.059Z,99350.41
2022-08-30T05:46:46.883Z,99348.66
2022-08-30T05:49:17.853Z,99349.64
2022-08-30T05:51:45.670Z,99350.19
2022-08-30T05:54:16.368Z,99350.48
2022-08-30T05:56:48.796Z,99351.98
2022-08-30T05:59:20.582Z,99353.72
2022-08-30T06:01:48.536Z,99351.74
2022-08-30T06:04:18.988Z,99354.17
2022-08-30T06:06:46.749Z,99351.98
2022-08-30T06:09:16.217Z,99353.98
2022-08-30T06:11:49.527Z,99353.42
2022-08-30T06:14:17.454Z,99361.45
2022-08-30T06:16:47.027Z,99360.29
2022-08-30T06:19:15.452Z,99359.02
2022-08-30T06:21:48.171Z,99360.33
2022-08-30T06:24:20.754Z,99362.33
2022-08-30T06:26:52.631Z,99361.60
2022-08-30T06:29:22.795Z,99365.23
2022-08-30T06:31:50.858Z,99366.95
2022-08-30T06:34:22.791Z,99370.08
2022-08-30T06:36:50.668Z,99373.21
2022-08-30T06:39:18.422Z,99370.95
2022-08-30T06:41:46.284Z,99377.07
2022-08-30T06:44:14.004Z,99378.52
2022-08-30T06:46:41.809Z,99373.23
2022-08-30T06:49:12.733Z,99375.16
2022-08-30T06:51:40.642Z,99371.42
2022-08-30T06:54:13.258Z,99370.10
2022-08-30T06:56:48.682Z,99363.01
2022-08-30T06:59:28.527Z,99364.88
2022-08-30T07:01:58.708Z,99365.16
2022-08-30T07:04:27.693Z,99360.83
2022-08-30T07:06:55.430Z,99362.30
2022-08-30T07:09:23.532Z,99369.17
2022-08-30T07:11:55.074Z,99362.21
2022-08-30T07:14:27.174Z,99367.95
2022-08-30T07:16:55.144Z,99367.41
2022-08-30T07:19:23.018Z,99370.05
2022-08-30T07:21:50.846Z,99365.14
2022-08-30T07:24:20.585Z,99369.23
2022-08-30T07:26:53.751Z,99364.00
2022-08-30T07:29:22.465Z,99371.13
2022-08-30T07:31:53.824Z,99371.59
2022-08-30T07:34:27.583Z,99370.01
2022-08-30T07:36:55.454Z,99364.48
2022-08-30T07:39:23.204Z,99364.65
2022-08-30T07:41:51.030Z,99361.32
2022-08-30T07:44:18.938Z,99357.11
2022-08-30T07:46:47.534Z,99356.77
2022-08-30T07:49:20.114Z,99360.23
2022-08-30T07:51:48.058Z,99355.04
2022-08-30T07:54:16.529Z,99355.95
2022-08-30T07:56:44.275Z,99350.11
2022-08-30T07:59:12.458Z,99354.94
2022-08-30T08:01:40.946Z,99352.30
2022-08-30T08:04:10.354Z,99349.99
2022-08-30T08:06:45.328Z,99355.81
2022-08-30T08:09:14.250Z,99349.88
2022-08-30T08:11:42.152Z,99351.09
2022-08-30T08:14:10.600Z,99350.49
2022-08-30T08:16:42.448Z,99353.23
2022-08-30T08:19:12.351Z,99350.34
2022-08-30T08:21:40.698Z,99350.18
2022-08-30T08:24:09.338Z,99350.89
2022-08-30T08:26:45.407Z,99351.90
2022-08-30T08:29:19.342Z,99345.74
2022-08-30T08:31:47.210Z,99343.48
2022-08-30T08:34:19.828Z,99345.98
2022-08-30T08:36:49.292Z,99342.36
2022-08-30T08:39:21.721Z,99341.98
2022-08-30T08:42:07.675Z,99341.56
2022-08-30T08:45:08.761Z,99332.36
2022-08-30T08:48:04.208Z,99334.15
2022-08-30T08:50:33.381Z,99334.58
2022-08-30T08:53:46.248Z,99330.91
2022-08-30T08:56:19.413Z,99331.48
2022-08-30T08:58:53.585Z,99336.35
2022-08-30T09:01:29.239Z,99343.00
2022-08-30T09:04:03.925Z,99338.53
2022-08-30T09:06:45.095Z,99338.13
2022-08-30T09:09:14.731Z,99336.02
2022-08-30T09:11:44.498Z,99336.53
2022-08-30T09:14:18.606Z,99336.99
2022-08-30T09:16:58.997Z,99340.14
2022-08-30T09:19:51.918Z,99339.70
2022-08-30T09:22:31.604Z,99339.70
2022-08-30T09:25:35.918Z,99342.13
2022-08-30T09:28:16.436Z,99347.39
2022-08-30T09:31:21.161Z,99350.91
2022-08-30T09:34:09.651Z,99350.00
2022-08-30T09:36:45.185Z,99351.63
2022-08-30T09:39:39.425Z,99352.38
2022-08-30T09:42:26.184Z,99351.15
2022-08-30T09:45:11.833Z,99356.29
2022-08-30T09:47:43.890Z,99351.84
2022-08-30T09:50:24.330Z,99349.27
2022-08-30T09:53:01.439Z,99350.51
2022-08-30T09:55:49.980Z,99348.60
2022-08-30T09:58:56.025Z,99348.50
2022-08-30T10:01:33.251Z,99346.95
2022-08-30T10:04:05.271Z,99343.88
2022-08-30T10:06:38.325Z,99344.02
2022-08-30T10:09:30.250Z,99340.61
2022-08-30T10:12:33.317Z,99339.35
2022-08-30T10:15:27.264Z,99346.62
2022-08-30T10:18:11.697Z,99346.59
2022-08-30T10:21:19.097Z,99340.36
2022-08-30T10:23:55.553Z,99336.29
2022-08-30T10:26:23.337Z,99335.42
2022-08-30T10:29:02.936Z,99340.48
2022-08-30T10:31:50.135Z,99341.88
2022-08-30T10:34:26.341Z,99345.33
2022-08-30T10:37:05.277Z,99349.71
2022-08-30T10:39:42.046Z,99347.04
2022-08-30T10:42:26.539Z,99337.70
2022-08-30T10:45:17.678Z,99330.31
2022-08-30T10:47:56.017Z,99322.55
2022-08-30T10:50:29.824Z,99320.48
2022-08-30T10:53:12.440Z,99325.95
2022-08-30T10:55:56.967Z,99330.17
2022-08-30T10:58:25.450Z,99327.91
2022-08-30T11:01:15.819Z,99325.76
2022-08-30T11:03:49.649Z,99321.30
2022-08-30T11:06:37.545Z,99312.62
2022-08-30T11:09:28.157Z,99312.03
2022-08-30T11:12:39.342Z,99314.68
2022-08-30T11:15:18.072Z,99310.64
2022-08-30T11:17:56.671Z,99307.36
2022-08-30T11:20:34.575Z,99300.09
2022-08-30T11:23:26.668Z,99296.54
2022-08-30T11:29:03.478Z,99302.98
2022-08-30T11:31:40.667Z,99302.44
2022-08-30T11:34:10.830Z,99303.81
2022-08-30T11:36:46.051Z,99301.80
2022-08-30T11:39:42.522Z,99302.95
2022-08-30T11:45:24.819Z,99297.17
2022-08-30T11:47:59.520Z,99293.10
2022-08-30T11:51:02.000Z,99293.55
2022-08-30T11:54:14.683Z,99288.65
2022-08-30T11:57:08.883Z,99284.64
2022-08-30T11:59:44.356Z,99278.59
2022-08-30T12:02:45.057Z,99277.13
2022-08-30T12:05:41.039Z,99278.91
2022-08-30T12:08:21.246Z,99273.34
2022-08-30T12:10:58.790Z,99271.48
2022-08-30T12:13:36.629Z,99270.06
2022-08-30T12:16:36.175Z,99274.16
2022-08-30T12:19:21.176Z,99268.04
2022-08-30T12:22:02.416Z,99260.24
2022-08-30T12:24:36.729Z,99260.12
2022-08-30T12:27:32.640Z,99256.64
2022-08-30T12:30:07.236Z,99251.79
2022-08-30T12:32:50.698Z,99248.39
2022-08-30T12:35:26.018Z,99246.65
2022-08-30T12:38:14.539Z,99243.19
2022-08-30T12:40:50.464Z,99237.72
2022-08-30T12:43:49.282Z,99239.37
2022-08-30T12:46:22.420Z,99234.94
2022-08-30T12:48:52.573Z,99234.48
2022-08-30T12:51:38.646Z,99231.99
2022-08-30T12:54:23.802Z,99231.59
2022-08-30T12:57:19.016Z,99228.86
2022-08-30T12:59:59.646Z,99231.95
2022-08-30T13:02:47.245Z,99228.73
2022-08-30T13:05:34.920Z,99226.55
2022-08-30T13:08:27.975Z,99220.52
2022-08-30T13:11:09.164Z,99215.91
2022-08-30T13:13:44.829Z,99215.45
2022-08-30T13:16:18.530Z,99216.98
2022-08-30T13:18:53.454Z,99212.94
2022-08-30T13:21:30.031Z,99211.41
2022-08-30T13:24:08.143Z,99213.63
2022-08-30T13:26:41.168Z,99211.45
2022-08-30T13:29:15.563Z,99202.92
2022-08-30T13:31:46.497Z,99209.78
2022-08-30T13:34:24.089Z,99208.97
2022-08-30T13:37:00.083Z,99206.62
2022-08-30T13:39:28.234Z,99206.23
2022-08-30T13:42:31.203Z,99204.37
2022-08-30T13:44:44.317Z,99199.27
2022-08-30T13:50:04.162Z,99193.29
2022-08-30T13:52:34.703Z,99193.58
2022-08-30T13:55:03.201Z,99191.59
2022-08-30T14:00:25.197Z,99183.39
2022-08-30T14:02:57.725Z,99181.86
2022-08-30T14:05:50.460Z,99176.81
2022-08-30T14:08:49.018Z,99173.52
2022-08-30T14:11:22.870Z,99163.31
2022-08-30T14:16:46.622Z,99168.18
2022-08-30T14:19:16.539Z,99167.60
2022-08-30T14:21:49.238Z,99163.36
2022-08-30T14:24:21.570Z,99162.52
2022-08-30T14:26:52.937Z,99164.21
2022-08-30T14:29:31.323Z,99164.02
2022-08-30T14:32:00.443Z,99165.14
2022-08-30T14:34:29.571Z,99163.88
2022-08-30T14:37:00.069Z,99165.40
2022-08-30T14:39:28.382Z,99162.65
2022-08-30T14:41:58.182Z,99160.35
2022-08-30T14:44:54.719Z,99159.64
2022-08-30T14:47:25.632Z,99162.54
2022-08-30T14:50:02.807Z,99162.15
2022-08-30T14:52:33.211Z,99160.93
2022-08-30T14:55:09.157Z,99161.82
2022-08-30T14:57:39.052Z,99162.34
2022-08-30T15:00:12.033Z,99161.56
2022-08-30T15:02:42.733Z,99162.48
2022-08-30T15:05:12.137Z,99164.06
2022-08-30T15:07:42.867Z,99163.14
2022-08-30T15:10:16.672Z,99159.08
2022-08-30T15:12:51.923Z,99160.70
2022-08-30T15:15:25.643Z,99153.52
2022-08-30T15:17:53.390Z,99154.36
2022-08-30T15:20:23.088Z,99156.41
2022-08-30T15:22:52.639Z,99154.89
2022-08-30T15:25:21.377Z,99155.36
2022-08-30T15:27:51.704Z,99153.05
2022-08-30T15:30:21.412Z,99155.16
2022-08-30T15:32:49.352Z,99154.06
2022-08-30T15:35:17.209Z,99154.25
2022-08-30T15:37:44.994Z,99155.84
2022-08-30T15:40:14.930Z,99156.02
2022-08-30T15:42:42.929Z,99152.10
2022-08-30T15:45:12.177Z,99151.27
2022-08-30T15:47:40.152Z,99150.94
2022-08-30T15:50:10.078Z,99157.75
2022-08-30T15:52:40.485Z,99155.29
2022-08-30T15:55:10.409Z,99155.23
2022-08-30T15:57:39.953Z,99151.30
2022-08-30T16:00:11.244Z,99149.16
2022-08-30T16:02:39.164Z,99148.27
2022-08-30T16:05:10.288Z,99148.05
2022-08-30T16:07:40.951Z,99144.41
2022-08-30T16:10:11.575Z,99144.27
2022-08-30T16:12:40.599Z,99146.86
2022-08-30T16:15:10.931Z,99148.36
2022-08-30T16:17:40.086Z,99148.81
2022-08-30T16:20:09.864Z,99149.75
2022-08-30T16:22:45.769Z,99149.90
2022-08-30T16:25:16.144Z,99149.64
2022-08-30T16:27:45.988Z,99151.65
2022-08-30T16:30:16.121Z,99155.66
2022-08-30T16:32:46.401Z,99158.94
2022-08-30T16:35:14.468Z,99160.58
2022-08-30T16:37:43.239Z,99161.19
2022-08-30T16:40:13.313Z,99162.25
2022-08-30T16:42:41.404Z,99164.38
2022-08-30T16:45:11.888Z,99167.98
2022-08-30T16:47:39.866Z,99174.13
2022-08-30T16:50:11.971Z,99175.00
2022-08-30T16:52:44.023Z,99174.60
2022-08-30T16:55:12.884Z,99176.16
2022-08-30T16:57:43.599Z,99180.39
2022-08-30T17:00:14.178Z,99182.42
2022-08-30T17:02:45.260Z,99178.60
2022-08-30T17:05:25.718Z,99183.20
2022-08-30T17:07:53.694Z,99188.13
2022-08-30T17:10:26.279Z,99188.28
2022-08-30T17:13:01.813Z,99189.97
2022-08-30T17:15:31.427Z,99187.37
2022-08-30T17:17:59.661Z,99191.48
2022-08-30T17:20:33.422Z,99195.32
2022-08-30T17:23:02.088Z,99201.83
2022-08-30T17:25:34.127Z,99205.66
2022-08-30T17:28:03.915Z,99207.01
2022-08-30T17:30:35.083Z,99210.40
2022-08-30T17:33:05.022Z,99216.13
2022-08-30T17:35:32.794Z,99221.20
2022-08-30T17:38:00.782Z,99224.83
2022-08-30T17:40:31.733Z,99229.78
2022-08-30T17:43:02.969Z,99236.15
2022-08-30T17:45:30.763Z,99241.32
2022-08-30T17:48:07.079Z,99246.79
2022-08-30T17:50:36.013Z,99250.39
2022-08-30T17:53:04.997Z,99251.02
2022-08-30T17:55:34.529Z,99256.21
2022-08-30T17:58:03.916Z,99254.40
2022-08-30T18:00:33.737Z,99258.27
2022-08-30T18:03:04.863Z,99258.33
2022-08-30T18:05:38.410Z,99260.80
2022-08-30T18:08:10.909Z,99262.34
2022-08-30T18:10:39.269Z,99260.06
2022-08-30T18:13:10.309Z,99266.23
2022-08-30T18:15:42.114Z,99270.91
2022-08-30T18:18:12.991Z,99269.26
2022-08-30T18:20:41.056Z,99270.36
2022-08-30T18:23:10.679Z,99267.19
2022-08-30T18:25:40.324Z,99268.94
2022-08-30T18:28:12.503Z,99266.19
2022-08-30T18:30:45.398Z,99270.50
2022-08-30T18:33:14.780Z,99278.13
2022-08-30T18:35:50.582Z,99277.34
2022-08-30T18:38:23.043Z,99278.14
2022-08-30T18:41:03.220Z,99280.16
2022-08-30T18:43:31.273Z,99276.52
2022-08-30T18:46:10.422Z,99280.07
2022-08-30T18:48:41.272Z,99280.95
2022-08-30T18:51:19.499Z,99282.82
2022-08-30T18:53:50.290Z,99279.90
2022-08-30T18:56:18.097Z,99282.00
2022-08-30T18:58:48.299Z,99282.24
2022-08-30T19:01:22.636Z,99279.69
2022-08-30T19:03:50.803Z,99278.14
2022-08-30T19:06:24.164Z,99280.48
2022-08-30T19:08:51.932Z,99276.92
2022-08-30T19:11:19.775Z,99281.01
2022-08-30T19:13:49.858Z,99278.81
2022-08-30T19:16:21.125Z,99279.95
2022-08-30T19:18:50.756Z,99273.94
2022-08-30T19:21:21.424Z,99275.83
2022-08-30T19:23:54.960Z,99271.27
2022-08-30T19:26:27.498Z,99273.73
2022-08-30T19:28:56.333Z,99272.84
2022-08-30T19:31:24.112Z,99268.63
2022-08-30T19:33:53.744Z,99268.64
2022-08-30T19:36:21.603Z,99270.25
2022-08-30T19:38:49.519Z,99273.54
2022-08-30T19:41:17.476Z,99272.80
2022-08-30T19:43:49.203Z,99277.14
2022-08-30T19:46:17.914Z,99275.20
2022-08-30T19:48:46.195Z,99273.02
2022-08-30T19:51:15.736Z,99274.20
2022-08-30T19:53:45.612Z,99273.27
2022-08-30T19:56:15.220Z,99271.63
2022-08-30T19:58:44.902Z,99275.20
2022-08-30T20:01:33.066Z,99275.05
2022-08-30T20:04:04.084Z,99273.23
2022-08-30T20:06:33.989Z,99273.55
2022-08-30T20:09:10.570Z,99272.06
2022-08-30T20:11:42.295Z,99275.92
2022-08-30T20:14:13.514Z,99280.17
2022-08-30T20:16:45.941Z,99280.25
2022-08-30T20:19:18.443Z,99284.45
2022-08-30T20:21:50.983Z,99284.99
2022-08-30T20:24:25.488Z,99288.17
2022-08-30T20:26:55.292Z,99287.78
2022-08-30T20:29:25.379Z,99288.70
2022-08-30T20:31:54.673Z,99289.08
2022-08-30T20:34:27.675Z,99294.13
2022-08-30T20:36:59.603Z,99296.19
2022-08-30T20:39:27.761Z,99297.60
2022-08-30T20:41:59.008Z,99299.76
2022-08-30T20:44:27.076Z,99301.07
2022-08-30T20:46:56.954Z,99305.77
2022-08-30T20:49:25.038Z,99301.35
2022-08-30T20:51:54.813Z,99304.05
2022-08-30T20:54:23.464Z,99304.84
2022-08-30T20:56:55.225Z,99313.64
2022-08-30T20:59:23.028Z,99303.99
2022-08-30T21:01:58.546Z,99305.56
2022-08-30T21:04:31.753Z,99307.02
2022-08-30T21:07:03.994Z,99308.91
2022-08-30T21:09:31.786Z,99308.81
2022-08-30T21:11:59.583Z,99310.23
2022-08-30T21:14:27.554Z,99309.11
2022-08-30T21:16:58.588Z,99311.94
2022-08-30T21:19:33.149Z,99313.69
2022-08-30T21:22:05.830Z,99315.60
2022-08-30T21:24:35.029Z,99320.11
2022-08-30T21:27:04.226Z,99324.93
2022-08-30T21:29:34.498Z,99326.54
2022-08-30T21:32:03.669Z,99323.65
2022-08-30T21:34:57.289Z,99321.46
2022-08-30T21:37:31.098Z,99314.85
2022-08-30T21:40:11.302Z,99314.15
2022-08-30T21:42:47.362Z,99318.40
2022-08-30T21:45:17.492Z,99325.29
2022-08-30T21:47:45.415Z,99322.50
2022-08-30T21:50:13.519Z,99322.27
2022-08-30T21:52:43.782Z,99323.33
2022-08-30T21:55:14.343Z,99320.08
2022-08-30T21:57:44.048Z,99324.45
2022-08-30T22:00:20.454Z,99324.38
2022-08-30T22:02:49.236Z,99322.88
2022-08-30T22:05:21.316Z,99320.72
2022-08-30T22:07:51.488Z,99322.13
2022-08-30T22:10:21.577Z,99323.80
2022-08-30T22:12:49.782Z,99322.11
2022-08-30T22:15:18.978Z,99323.15
2022-08-30T22:17:47.357Z,99322.61
2022-08-30T22:20:18.490Z,99319.36
2022-08-30T22:22:47.032Z,99315.92
2022-08-30T22:25:15.872Z,99313.66
2022-08-30T22:27:44.047Z,99309.67
2022-08-30T22:30:13.300Z,99307.98
2022-08-30T22:32:41.720Z,99307.17
2022-08-30T22:35:11.050Z,99306.95
2022-08-30T22:37:39.443Z,99306.52
2022-08-30T22:40:08.368Z,99307.36
2022-08-30T22:42:38.601Z,99309.27
2022-08-30T22:45:08.038Z,99306.90
2022-08-30T22:47:39.055Z,99308.09
2022-08-30T22:50:08.573Z,99308.86
2022-08-30T22:52:37.965Z,99304.00
2022-08-30T22:55:07.262Z,99305.23
2022-08-30T22:57:38.409Z,99301.45
2022-08-30T23:00:12.931Z,99294.30
2022-08-30T23:02:50.350Z,99299.74
2022-08-30T23:05:21.511Z,99295.16
2022-08-30T23:07:53.125Z,99299.02
2022-08-30T23:10:28.644Z,99299.71
2022-08-30T23:12:58.301Z,99297.77
2022-08-30T23:15:29.891Z,99295.27
2022-08-30T23:17:58.201Z,99294.63
2022-08-30T23:20:26.706Z,99293.19
2022-08-30T23:22:58.217Z,99297.25
2022-08-30T23:25:51.852Z,99298.36
2022-08-30T23:28:41.198Z,99300.59
2022-08-30T23:31:37.027Z,99297.83
2022-08-30T23:34:26.055Z,99297.95
2022-08-30T23:37:12.776Z,99296.86
2022-08-30T23:39:59.560Z,99293.59
2022-08-30T23:42:47.316Z,99290.73
2022-08-30T23:45:34.518Z,99290.91
2022-08-30T23:48:25.135Z,99290.20
2022-08-30T23:51:11.699Z,99295.77
2022-08-30T23:54:12.054Z,99291.33
2022-08-30T23:57:00.432Z,99289.75
2022-08-30T23:59:48.570Z,99288.91
